sensor_id;sensor_type;location;lat;lon;timestamp;temperature;humidity
36816;DHT22;22760;51.910;4.474;2022-07-10T00:00:31;14.70;99.90
36816;DHT22;22760;51.910;4.474;2022-07-10T00:03:00;14.70;99.90
36816;DHT22;22760;51.910;4.474;2022-07-10T00:05:27;14.80;99.90
36816;DHT22;22760;51.910;4.474;2022-07-10T00:07:54;14.70;99.90
36816;DHT22;22760;51.910;4.474;2022-07-10T00:10:22;14.70;99.90
36816;DHT22;22760;51.910;4.474;2022-07-10T00:12:51;14.70;99.90
36816;DHT22;22760;51.910;4.474;2022-07-10T00:15:18;14.80;99.90
36816;DHT22;22760;51.910;4.474;2022-07-10T00:17:45;14.80;99.90
36816;DHT22;22760;51.910;4.474;2022-07-10T00:20:14;14.70;99.90
36816;DHT22;22760;51.910;4.474;2022-07-10T00:22:41;14.80;99.90
36816;DHT22;22760;51.910;4.474;2022-07-10T00:25:10;14.80;99.90
36816;DHT22;22760;51.910;4.474;2022-07-10T00:27:37;14.80;99.90
36816;DHT22;22760;51.910;4.474;2022-07-10T00:30:05;14.80;99.90
36816;DHT22;22760;51.910;4.474;2022-07-10T00:32:32;14.80;99.90
36816;DHT22;22760;51.910;4.474;2022-07-10T00:34:59;14.80;99.90
36816;DHT22;22760;51.910;4.474;2022-07-10T00:37:28;14.70;99.90
36816;DHT22;22760;51.910;4.474;2022-07-10T00:39:55;14.70;99.90
36816;DHT22;22760;51.910;4.474;2022-07-10T00:42:22;14.70;99.90
36816;DHT22;22760;51.910;4.474;2022-07-10T00:44:49;14.70;99.90
36816;DHT22;22760;51.910;4.474;2022-07-10T00:47:16;14.80;99.90
36816;DHT22;22760;51.910;4.474;2022-07-10T00:49:45;14.80;99.90
36816;DHT22;22760;51.910;4.474;2022-07-10T00:52:13;14.70;99.90
36816;DHT22;22760;51.910;4.474;2022-07-10T00:54:44;14.70;99.90
36816;DHT22;22760;51.910;4.474;2022-07-10T00:57:12;14.70;99.90
36816;DHT22;22760;51.910;4.474;2022-07-10T00:59:40;14.60;99.90
36816;DHT22;22760;51.910;4.474;2022-07-10T01:02:07;14.60;99.90
36816;DHT22;22760;51.910;4.474;2022-07-10T01:04:34;14.60;99.90
36816;DHT22;22760;51.910;4.474;2022-07-10T01:07:01;14.60;99.90
36816;DHT22;22760;51.910;4.474;2022-07-10T01:09:28;14.60;99.90
36816;DHT22;22760;51.910;4.474;2022-07-10T01:11:57;14.60;99.90
36816;DHT22;22760;51.910;4.474;2022-07-10T01:14:26;14.50;99.90
36816;DHT22;22760;51.910;4.474;2022-07-10T01:16:53;14.50;99.90
36816;DHT22;22760;51.910;4.474;2022-07-10T01:19:20;14.50;99.90
36816;DHT22;22760;51.910;4.474;2022-07-10T01:21:48;14.50;99.90
36816;DHT22;22760;51.910;4.474;2022-07-10T01:24:15;14.40;99.90
36816;DHT22;22760;51.910;4.474;2022-07-10T01:26:41;14.40;99.90
36816;DHT22;22760;51.910;4.474;2022-07-10T01:29:09;14.40;99.90
36816;DHT22;22760;51.910;4.474;2022-07-10T01:31:37;14.40;99.90
36816;DHT22;22760;51.910;4.474;2022-07-10T01:34:06;14.30;99.90
36816;DHT22;22760;51.910;4.474;2022-07-10T01:36:34;14.30;99.90
36816;DHT22;22760;51.910;4.474;2022-07-10T01:39:02;14.30;99.90
36816;DHT22;22760;51.910;4.474;2022-07-10T01:41:29;14.30;99.90
36816;DHT22;22760;51.910;4.474;2022-07-10T01:43:56;14.30;99.90
36816;DHT22;22760;51.910;4.474;2022-07-10T01:46:23;14.30;99.90
36816;DHT22;22760;51.910;4.474;2022-07-10T01:48:51;14.30;99.90
36816;DHT22;22760;51.910;4.474;2022-07-10T01:51:18;14.20;99.90
36816;DHT22;22760;51.910;4.474;2022-07-10T01:53:45;14.30;99.90
36816;DHT22;22760;51.910;4.474;2022-07-10T01:56:14;14.20;99.90
36816;DHT22;22760;51.910;4.474;2022-07-10T01:58:42;14.20;99.90
36816;DHT22;22760;51.910;4.474;2022-07-10T02:01:09;14.20;99.90
36816;DHT22;22760;51.910;4.474;2022-07-10T02:03:36;14.20;99.90
36816;DHT22;22760;51.910;4.474;2022-07-10T02:06:21;14.20;99.90
36816;DHT22;22760;51.910;4.474;2022-07-10T02:08:48;14.10;99.90
36816;DHT22;22760;51.910;4.474;2022-07-10T02:11:16;14.10;99.90
36816;DHT22;22760;51.910;4.474;2022-07-10T02:13:43;14.10;99.90
36816;DHT22;22760;51.910;4.474;2022-07-10T02:16:09;14.10;99.90
36816;DHT22;22760;51.910;4.474;2022-07-10T02:18:37;14.00;99.90
36816;DHT22;22760;51.910;4.474;2022-07-10T02:21:05;14.00;99.90
36816;DHT22;22760;51.910;4.474;2022-07-10T02:23:32;14.00;99.90
36816;DHT22;22760;51.910;4.474;2022-07-10T02:25:59;14.00;99.90
36816;DHT22;22760;51.910;4.474;2022-07-10T02:28:27;13.90;99.90
36816;DHT22;22760;51.910;4.474;2022-07-10T02:30:54;14.00;99.90
36816;DHT22;22760;51.910;4.474;2022-07-10T02:33:21;13.90;99.90
36816;DHT22;22760;51.910;4.474;2022-07-10T02:35:47;13.90;99.90
36816;DHT22;22760;51.910;4.474;2022-07-10T02:38:14;13.90;99.90
36816;DHT22;22760;51.910;4.474;2022-07-10T02:40:41;13.90;99.90
36816;DHT22;22760;51.910;4.474;2022-07-10T02:43:08;13.90;99.90
36816;DHT22;22760;51.910;4.474;2022-07-10T02:45:36;13.90;99.90
36816;DHT22;22760;51.910;4.474;2022-07-10T02:48:03;13.90;99.90
36816;DHT22;22760;51.910;4.474;2022-07-10T02:50:30;13.90;99.90
36816;DHT22;22760;51.910;4.474;2022-07-10T02:52:57;13.80;99.90
36816;DHT22;22760;51.910;4.474;2022-07-10T02:55:24;13.80;99.90
36816;DHT22;22760;51.910;4.474;2022-07-10T02:57:50;13.80;99.90
36816;DHT22;22760;51.910;4.474;2022-07-10T03:00:17;13.80;99.90
36816;DHT22;22760;51.910;4.474;2022-07-10T03:02:45;13.80;99.90
36816;DHT22;22760;51.910;4.474;2022-07-10T03:05:12;13.80;99.90
36816;DHT22;22760;51.910;4.474;2022-07-10T03:07:39;13.80;99.90
36816;DHT22;22760;51.910;4.474;2022-07-10T03:10:06;13.80;99.90
36816;DHT22;22760;51.910;4.474;2022-07-10T03:12:33;13.70;99.90
36816;DHT22;22760;51.910;4.474;2022-07-10T03:15:00;13.70;99.90
36816;DHT22;22760;51.910;4.474;2022-07-10T03:17:27;13.70;99.90
36816;DHT22;22760;51.910;4.474;2022-07-10T03:19:55;13.80;99.90
36816;DHT22;22760;51.910;4.474;2022-07-10T03:22:21;13.90;99.90
36816;DHT22;22760;51.910;4.474;2022-07-10T03:24:48;13.90;99.90
36816;DHT22;22760;51.910;4.474;2022-07-10T03:27:16;13.90;99.90
36816;DHT22;22760;51.910;4.474;2022-07-10T03:29:42;13.90;99.90
36816;DHT22;22760;51.910;4.474;2022-07-10T03:32:09;14.00;99.90
36816;DHT22;22760;51.910;4.474;2022-07-10T03:34:36;13.90;99.90
36816;DHT22;22760;51.910;4.474;2022-07-10T03:37:04;14.00;99.90
36816;DHT22;22760;51.910;4.474;2022-07-10T03:39:31;14.00;99.90
36816;DHT22;22760;51.910;4.474;2022-07-10T03:41:58;14.00;99.90
36816;DHT22;22760;51.910;4.474;2022-07-10T03:44:25;14.00;99.90
36816;DHT22;22760;51.910;4.474;2022-07-10T03:46:52;14.00;99.90
36816;DHT22;22760;51.910;4.474;2022-07-10T03:49:19;14.00;99.90
36816;DHT22;22760;51.910;4.474;2022-07-10T03:51:46;14.10;99.90
36816;DHT22;22760;51.910;4.474;2022-07-10T03:54:14;14.10;99.90
36816;DHT22;22760;51.910;4.474;2022-07-10T03:56:41;14.10;99.90
36816;DHT22;22760;51.910;4.474;2022-07-10T03:59:25;14.20;99.90
36816;DHT22;22760;51.910;4.474;2022-07-10T04:01:52;14.20;99.90
36816;DHT22;22760;51.910;4.474;2022-07-10T04:04:18;14.30;99.90
36816;DHT22;22760;51.910;4.474;2022-07-10T04:06:45;14.40;99.90
36816;DHT22;22760;51.910;4.474;2022-07-10T04:09:13;14.40;99.90
36816;DHT22;22760;51.910;4.474;2022-07-10T04:11:40;14.50;99.90
36816;DHT22;22760;51.910;4.474;2022-07-10T04:14:07;14.50;99.90
36816;DHT22;22760;51.910;4.474;2022-07-10T04:16:33;14.60;99.90
36816;DHT22;22760;51.910;4.474;2022-07-10T04:19:00;14.70;99.90
36816;DHT22;22760;51.910;4.474;2022-07-10T04:21:27;14.70;99.90
36816;DHT22;22760;51.910;4.474;2022-07-10T04:23:54;14.70;99.90
36816;DHT22;22760;51.910;4.474;2022-07-10T04:26:22;14.80;99.90
36816;DHT22;22760;51.910;4.474;2022-07-10T04:28:49;14.90;99.90
36816;DHT22;22760;51.910;4.474;2022-07-10T04:31:15;15.00;99.90
36816;DHT22;22760;51.910;4.474;2022-07-10T04:33:42;15.00;99.90
36816;DHT22;22760;51.910;4.474;2022-07-10T04:36:09;15.10;99.90
36816;DHT22;22760;51.910;4.474;2022-07-10T04:38:36;15.10;99.90
36816;DHT22;22760;51.910;4.474;2022-07-10T04:41:03;15.20;99.90
36816;DHT22;22760;51.910;4.474;2022-07-10T04:43:31;15.20;99.90
36816;DHT22;22760;51.910;4.474;2022-07-10T04:45:58;15.30;99.90
36816;DHT22;22760;51.910;4.474;2022-07-10T04:48:25;15.30;99.90
36816;DHT22;22760;51.910;4.474;2022-07-10T04:50:52;15.40;99.90
36816;DHT22;22760;51.910;4.474;2022-07-10T04:53:19;15.40;99.90
36816;DHT22;22760;51.910;4.474;2022-07-10T04:55:46;15.40;99.90
36816;DHT22;22760;51.910;4.474;2022-07-10T04:58:12;15.40;99.90
36816;DHT22;22760;51.910;4.474;2022-07-10T05:00:40;15.40;99.90
36816;DHT22;22760;51.910;4.474;2022-07-10T05:03:07;15.40;99.90
36816;DHT22;22760;51.910;4.474;2022-07-10T05:05:34;15.50;99.90
36816;DHT22;22760;51.910;4.474;2022-07-10T05:08:01;15.50;99.90
36816;DHT22;22760;51.910;4.474;2022-07-10T05:10:28;15.50;99.90
36816;DHT22;22760;51.910;4.474;2022-07-10T05:12:55;15.60;99.90
36816;DHT22;22760;51.910;4.474;2022-07-10T05:15:21;15.60;99.90
36816;DHT22;22760;51.910;4.474;2022-07-10T05:17:49;15.70;99.90
36816;DHT22;22760;51.910;4.474;2022-07-10T05:20:16;15.70;99.90
36816;DHT22;22760;51.910;4.474;2022-07-10T05:22:43;15.80;99.90
36816;DHT22;22760;51.910;4.474;2022-07-10T05:25:10;15.90;99.90
36816;DHT22;22760;51.910;4.474;2022-07-10T05:27:37;15.90;99.90
36816;DHT22;22760;51.910;4.474;2022-07-10T05:30:04;16.00;99.90
36816;DHT22;22760;51.910;4.474;2022-07-10T05:32:31;16.00;99.90
36816;DHT22;22760;51.910;4.474;2022-07-10T05:34:59;16.10;99.90
36816;DHT22;22760;51.910;4.474;2022-07-10T05:37:26;16.10;99.90
36816;DHT22;22760;51.910;4.474;2022-07-10T05:39:53;16.10;99.90
36816;DHT22;22760;51.910;4.474;2022-07-10T05:42:20;16.10;99.90
36816;DHT22;22760;51.910;4.474;2022-07-10T05:44:46;16.20;99.90
36816;DHT22;22760;51.910;4.474;2022-07-10T05:47:13;16.30;99.90
36816;DHT22;22760;51.910;4.474;2022-07-10T05:49:40;16.40;99.90
36816;DHT22;22760;51.910;4.474;2022-07-10T05:52:08;16.40;99.90
36816;DHT22;22760;51.910;4.474;2022-07-10T05:54:35;16.40;99.90
36816;DHT22;22760;51.910;4.474;2022-07-10T05:57:02;16.50;99.90
36816;DHT22;22760;51.910;4.474;2022-07-10T05:59:28;16.40;99.90
36816;DHT22;22760;51.910;4.474;2022-07-10T06:01:55;16.50;99.90
36816;DHT22;22760;51.910;4.474;2022-07-10T06:04:22;16.60;99.90
36816;DHT22;22760;51.910;4.474;2022-07-10T06:06:49;16.60;99.90
36816;DHT22;22760;51.910;4.474;2022-07-10T06:09:17;16.70;99.90
36816;DHT22;22760;51.910;4.474;2022-07-10T06:11:44;16.60;99.90
36816;DHT22;22760;51.910;4.474;2022-07-10T06:14:11;16.70;99.90
36816;DHT22;22760;51.910;4.474;2022-07-10T06:16:38;16.60;99.90
36816;DHT22;22760;51.910;4.474;2022-07-10T06:19:05;16.60;99.90
36816;DHT22;22760;51.910;4.474;2022-07-10T06:21:32;16.80;99.90
36816;DHT22;22760;51.910;4.474;2022-07-10T06:23:59;16.80;99.90
36816;DHT22;22760;51.910;4.474;2022-07-10T06:26:27;16.80;99.90
36816;DHT22;22760;51.910;4.474;2022-07-10T06:28:54;16.80;99.90
36816;DHT22;22760;51.910;4.474;2022-07-10T06:31:20;16.90;99.90
36816;DHT22;22760;51.910;4.474;2022-07-10T06:33:47;17.00;99.90
36816;DHT22;22760;51.910;4.474;2022-07-10T06:36:14;17.00;99.90
36816;DHT22;22760;51.910;4.474;2022-07-10T06:38:41;17.20;99.90
36816;DHT22;22760;51.910;4.474;2022-07-10T06:41:08;17.20;99.90
36816;DHT22;22760;51.910;4.474;2022-07-10T06:43:36;17.30;99.90
36816;DHT22;22760;51.910;4.474;2022-07-10T06:46:03;17.30;99.90
36816;DHT22;22760;51.910;4.474;2022-07-10T06:48:30;17.30;99.90
36816;DHT22;22760;51.910;4.474;2022-07-10T06:50:56;17.30;99.90
36816;DHT22;22760;51.910;4.474;2022-07-10T06:53:23;17.30;99.90
36816;DHT22;22760;51.910;4.474;2022-07-10T06:55:52;17.30;99.90
36816;DHT22;22760;51.910;4.474;2022-07-10T06:58:19;17.40;99.90
36816;DHT22;22760;51.910;4.474;2022-07-10T07:00:47;17.40;99.90
36816;DHT22;22760;51.910;4.474;2022-07-10T07:03:14;17.50;99.90
36816;DHT22;22760;51.910;4.474;2022-07-10T07:05:41;17.40;99.90
36816;DHT22;22760;51.910;4.474;2022-07-10T07:08:08;17.50;99.90
36816;DHT22;22760;51.910;4.474;2022-07-10T07:10:34;17.50;99.90
36816;DHT22;22760;51.910;4.474;2022-07-10T07:13:01;17.50;99.90
36816;DHT22;22760;51.910;4.474;2022-07-10T07:15:28;17.50;99.90
36816;DHT22;22760;51.910;4.474;2022-07-10T07:17:56;17.60;99.90
36816;DHT22;22760;51.910;4.474;2022-07-10T07:20:33;17.70;99.90
36816;DHT22;22760;51.910;4.474;2022-07-10T07:23:17;17.80;99.90
36816;DHT22;22760;51.910;4.474;2022-07-10T07:25:44;17.80;99.90
36816;DHT22;22760;51.910;4.474;2022-07-10T07:28:12;17.70;99.90
36816;DHT22;22760;51.910;4.474;2022-07-10T07:30:41;17.70;99.90
36816;DHT22;22760;51.910;4.474;2022-07-10T07:33:09;17.80;99.90
36816;DHT22;22760;51.910;4.474;2022-07-10T07:35:36;17.90;99.90
36816;DHT22;22760;51.910;4.474;2022-07-10T07:38:03;17.90;99.90
36816;DHT22;22760;51.910;4.474;2022-07-10T07:40:31;17.90;99.90
36816;DHT22;22760;51.910;4.474;2022-07-10T07:42:58;17.90;99.90
36816;DHT22;22760;51.910;4.474;2022-07-10T07:45:26;18.00;99.90
36816;DHT22;22760;51.910;4.474;2022-07-10T07:47:54;18.10;99.90
36816;DHT22;22760;51.910;4.474;2022-07-10T07:50:24;18.20;99.90
36816;DHT22;22760;51.910;4.474;2022-07-10T07:52:52;18.30;99.90
36816;DHT22;22760;51.910;4.474;2022-07-10T07:55:20;18.50;99.90
36816;DHT22;22760;51.910;4.474;2022-07-10T07:57:47;18.60;99.90
36816;DHT22;22760;51.910;4.474;2022-07-10T08:00:15;18.50;99.90
36816;DHT22;22760;51.910;4.474;2022-07-10T08:02:43;18.40;99.90
36816;DHT22;22760;51.910;4.474;2022-07-10T08:05:10;18.60;99.90
36816;DHT22;22760;51.910;4.474;2022-07-10T08:07:39;18.80;99.90
36816;DHT22;22760;51.910;4.474;2022-07-10T08:10:09;18.50;99.90
36816;DHT22;22760;51.910;4.474;2022-07-10T08:12:37;18.40;99.90
36816;DHT22;22760;51.910;4.474;2022-07-10T08:15:05;18.40;99.90
36816;DHT22;22760;51.910;4.474;2022-07-10T08:17:33;18.30;99.90
36816;DHT22;22760;51.910;4.474;2022-07-10T08:19:59;18.40;99.90
36816;DHT22;22760;51.910;4.474;2022-07-10T08:22:26;18.50;99.90
36816;DHT22;22760;51.910;4.474;2022-07-10T08:24:54;18.60;99.90
36816;DHT22;22760;51.910;4.474;2022-07-10T08:27:22;18.60;99.90
36816;DHT22;22760;51.910;4.474;2022-07-10T08:29:49;18.60;99.90
36816;DHT22;22760;51.910;4.474;2022-07-10T08:32:16;18.60;99.90
36816;DHT22;22760;51.910;4.474;2022-07-10T08:34:42;18.80;99.90
36816;DHT22;22760;51.910;4.474;2022-07-10T08:37:10;18.90;99.90
36816;DHT22;22760;51.910;4.474;2022-07-10T08:39:36;19.10;99.90
36816;DHT22;22760;51.910;4.474;2022-07-10T08:42:06;18.90;99.90
36816;DHT22;22760;51.910;4.474;2022-07-10T08:44:33;18.90;99.90
36816;DHT22;22760;51.910;4.474;2022-07-10T08:47:02;19.10;99.90
36816;DHT22;22760;51.910;4.474;2022-07-10T08:49:29;19.00;99.90
36816;DHT22;22760;51.910;4.474;2022-07-10T08:51:58;19.00;99.90
36816;DHT22;22760;51.910;4.474;2022-07-10T08:54:27;19.20;99.90
36816;DHT22;22760;51.910;4.474;2022-07-10T08:56:56;19.10;99.90
36816;DHT22;22760;51.910;4.474;2022-07-10T08:59:25;19.20;99.90
36816;DHT22;22760;51.910;4.474;2022-07-10T09:01:52;19.30;99.90
36816;DHT22;22760;51.910;4.474;2022-07-10T09:04:21;19.10;99.90
36816;DHT22;22760;51.910;4.474;2022-07-10T09:06:49;19.20;99.90
36816;DHT22;22760;51.910;4.474;2022-07-10T09:09:16;19.20;99.90
36816;DHT22;22760;51.910;4.474;2022-07-10T09:11:44;19.10;99.90
36816;DHT22;22760;51.910;4.474;2022-07-10T09:14:14;19.20;99.90
36816;DHT22;22760;51.910;4.474;2022-07-10T09:16:44;19.20;99.90
36816;DHT22;22760;51.910;4.474;2022-07-10T09:19:16;19.20;99.90
36816;DHT22;22760;51.910;4.474;2022-07-10T09:21:43;19.30;99.90
36816;DHT22;22760;51.910;4.474;2022-07-10T09:24:10;19.40;99.90
36816;DHT22;22760;51.910;4.474;2022-07-10T09:26:38;19.30;99.90
36816;DHT22;22760;51.910;4.474;2022-07-10T09:29:06;19.30;99.90
36816;DHT22;22760;51.910;4.474;2022-07-10T09:31:51;19.30;99.90
36816;DHT22;22760;51.910;4.474;2022-07-10T09:34:18;19.20;99.90
36816;DHT22;22760;51.910;4.474;2022-07-10T09:37:20;19.10;99.90
36816;DHT22;22760;51.910;4.474;2022-07-10T09:39:58;19.00;99.90
36816;DHT22;22760;51.910;4.474;2022-07-10T09:42:29;19.10;99.90
36816;DHT22;22760;51.910;4.474;2022-07-10T09:45:17;19.30;99.90
36816;DHT22;22760;51.910;4.474;2022-07-10T09:47:54;19.40;99.90
36816;DHT22;22760;51.910;4.474;2022-07-10T09:50:23;19.50;99.90
36816;DHT22;22760;51.910;4.474;2022-07-10T09:52:52;19.70;99.90
36816;DHT22;22760;51.910;4.474;2022-07-10T09:55:21;19.60;99.90
36816;DHT22;22760;51.910;4.474;2022-07-10T09:57:58;19.60;99.90
36816;DHT22;22760;51.910;4.474;2022-07-10T10:00:27;19.70;99.90
36816;DHT22;22760;51.910;4.474;2022-07-10T10:03:00;19.70;99.90
36816;DHT22;22760;51.910;4.474;2022-07-10T10:05:33;19.70;99.90
36816;DHT22;22760;51.910;4.474;2022-07-10T10:08:04;19.70;99.90
36816;DHT22;22760;51.910;4.474;2022-07-10T10:10:32;19.90;99.90
36816;DHT22;22760;51.910;4.474;2022-07-10T10:13:03;19.90;99.90
36816;DHT22;22760;51.910;4.474;2022-07-10T10:15:35;20.00;99.90
36816;DHT22;22760;51.910;4.474;2022-07-10T10:18:03;20.30;99.90
36816;DHT22;22760;51.910;4.474;2022-07-10T10:20:32;20.40;99.90
36816;DHT22;22760;51.910;4.474;2022-07-10T10:23:09;20.50;99.90
36816;DHT22;22760;51.910;4.474;2022-07-10T10:25:37;20.50;99.90
36816;DHT22;22760;51.910;4.474;2022-07-10T10:28:06;20.40;99.90
36816;DHT22;22760;51.910;4.474;2022-07-10T10:30:38;20.40;99.90
36816;DHT22;22760;51.910;4.474;2022-07-10T10:36:09;20.90;99.90
36816;DHT22;22760;51.910;4.474;2022-07-10T10:39:02;20.80;99.90
36816;DHT22;22760;51.910;4.474;2022-07-10T10:41:37;20.90;99.90
36816;DHT22;22760;51.910;4.474;2022-07-10T10:44:25;20.70;99.90
36816;DHT22;22760;51.910;4.474;2022-07-10T10:47:02;20.50;99.90
36816;DHT22;22760;51.910;4.474;2022-07-10T10:49:54;20.40;99.90
36816;DHT22;22760;51.910;4.474;2022-07-10T10:52:23;20.30;99.90
36816;DHT22;22760;51.910;4.474;2022-07-10T10:55:07;20.30;99.90
36816;DHT22;22760;51.910;4.474;2022-07-10T10:57:38;20.10;99.90
36816;DHT22;22760;51.910;4.474;2022-07-10T11:00:33;20.30;99.90
36816;DHT22;22760;51.910;4.474;2022-07-10T11:05:49;20.40;99.90
36816;DHT22;22760;51.910;4.474;2022-07-10T11:08:38;20.00;99.90
36816;DHT22;22760;51.910;4.474;2022-07-10T11:11:36;20.30;99.90
36816;DHT22;22760;51.910;4.474;2022-07-10T11:14:03;20.40;99.90
36816;DHT22;22760;51.910;4.474;2022-07-10T11:16:31;20.40;99.90
36816;DHT22;22760;51.910;4.474;2022-07-10T11:19:00;20.30;99.90
36816;DHT22;22760;51.910;4.474;2022-07-10T11:21:28;20.50;99.90
36816;DHT22;22760;51.910;4.474;2022-07-10T11:24:10;20.70;99.90
36816;DHT22;22760;51.910;4.474;2022-07-10T11:26:49;20.90;99.90
36816;DHT22;22760;51.910;4.474;2022-07-10T11:29:18;21.00;99.90
36816;DHT22;22760;51.910;4.474;2022-07-10T11:31:52;21.20;99.90
36816;DHT22;22760;51.910;4.474;2022-07-10T11:34:19;21.50;99.90
36816;DHT22;22760;51.910;4.474;2022-07-10T11:36:47;21.50;99.90
36816;DHT22;22760;51.910;4.474;2022-07-10T11:39:15;21.90;99.90
36816;DHT22;22760;51.910;4.474;2022-07-10T11:41:44;21.80;99.90
36816;DHT22;22760;51.910;4.474;2022-07-10T11:44:13;21.70;99.90
36816;DHT22;22760;51.910;4.474;2022-07-10T11:46:40;21.60;99.90
36816;DHT22;22760;51.910;4.474;2022-07-10T11:49:10;21.60;99.90
36816;DHT22;22760;51.910;4.474;2022-07-10T11:51:40;21.60;99.90
36816;DHT22;22760;51.910;4.474;2022-07-10T11:54:09;21.70;99.50
36816;DHT22;22760;51.910;4.474;2022-07-10T11:56:40;21.80;99.90
36816;DHT22;22760;51.910;4.474;2022-07-10T11:59:09;21.80;99.90
36816;DHT22;22760;51.910;4.474;2022-07-10T12:01:41;22.00;99.90
36816;DHT22;22760;51.910;4.474;2022-07-10T12:04:09;22.00;99.90
36816;DHT22;22760;51.910;4.474;2022-07-10T12:06:38;22.30;97.90
36816;DHT22;22760;51.910;4.474;2022-07-10T12:09:06;22.10;99.90
36816;DHT22;22760;51.910;4.474;2022-07-10T12:11:34;22.00;99.90
36816;DHT22;22760;51.910;4.474;2022-07-10T12:14:13;22.10;99.90
36816;DHT22;22760;51.910;4.474;2022-07-10T12:16:41;22.20;99.90
36816;DHT22;22760;51.910;4.474;2022-07-10T12:19:11;22.40;98.80
36816;DHT22;22760;51.910;4.474;2022-07-10T12:21:38;22.70;97.60
36816;DHT22;22760;51.910;4.474;2022-07-10T12:24:05;22.50;95.50
36816;DHT22;22760;51.910;4.474;2022-07-10T12:26:34;22.40;97.90
36816;DHT22;22760;51.910;4.474;2022-07-10T12:29:02;22.30;97.70
36816;DHT22;22760;51.910;4.474;2022-07-10T12:31:32;22.70;99.10
36816;DHT22;22760;51.910;4.474;2022-07-10T12:34:00;22.80;97.40
36816;DHT22;22760;51.910;4.474;2022-07-10T12:36:46;22.80;99.30
36816;DHT22;22760;51.910;4.474;2022-07-10T12:39:14;22.60;95.90
36816;DHT22;22760;51.910;4.474;2022-07-10T12:41:54;22.50;99.20
36816;DHT22;22760;51.910;4.474;2022-07-10T12:44:33;22.60;98.50
36816;DHT22;22760;51.910;4.474;2022-07-10T12:47:03;22.80;98.00
36816;DHT22;22760;51.910;4.474;2022-07-10T12:49:50;22.70;97.50
36816;DHT22;22760;51.910;4.474;2022-07-10T12:52:23;23.00;99.20
36816;DHT22;22760;51.910;4.474;2022-07-10T12:55:05;23.20;97.60
36816;DHT22;22760;51.910;4.474;2022-07-10T12:57:33;23.00;97.90
36816;DHT22;22760;51.910;4.474;2022-07-10T13:00:12;23.30;99.90
36816;DHT22;22760;51.910;4.474;2022-07-10T13:02:40;23.50;99.10
36816;DHT22;22760;51.910;4.474;2022-07-10T13:05:08;23.70;99.90
36816;DHT22;22760;51.910;4.474;2022-07-10T13:07:36;23.40;99.90
36816;DHT22;22760;51.910;4.474;2022-07-10T13:10:04;23.50;99.50
36816;DHT22;22760;51.910;4.474;2022-07-10T13:12:31;23.30;98.50
36816;DHT22;22760;51.910;4.474;2022-07-10T13:14:58;23.40;98.80
36816;DHT22;22760;51.910;4.474;2022-07-10T13:17:25;23.30;99.90
36816;DHT22;22760;51.910;4.474;2022-07-10T13:19:54;23.50;99.50
36816;DHT22;22760;51.910;4.474;2022-07-10T13:22:20;23.10;98.90
36816;DHT22;22760;51.910;4.474;2022-07-10T13:24:47;22.90;99.90
36816;DHT22;22760;51.910;4.474;2022-07-10T13:27:14;22.60;99.50
36816;DHT22;22760;51.910;4.474;2022-07-10T13:29:41;22.60;99.90
36816;DHT22;22760;51.910;4.474;2022-07-10T13:32:08;22.40;99.90
36816;DHT22;22760;51.910;4.474;2022-07-10T13:34:35;22.40;99.90
36816;DHT22;22760;51.910;4.474;2022-07-10T13:37:03;22.50;99.90
36816;DHT22;22760;51.910;4.474;2022-07-10T13:39:31;22.60;99.90
36816;DHT22;22760;51.910;4.474;2022-07-10T13:41:58;22.90;99.90
36816;DHT22;22760;51.910;4.474;2022-07-10T13:44:25;23.00;99.90
36816;DHT22;22760;51.910;4.474;2022-07-10T13:46:53;22.80;99.90
36816;DHT22;22760;51.910;4.474;2022-07-10T13:49:19;22.90;99.90
36816;DHT22;22760;51.910;4.474;2022-07-10T13:51:47;23.10;99.90
36816;DHT22;22760;51.910;4.474;2022-07-10T13:54:16;23.20;99.90
36816;DHT22;22760;51.910;4.474;2022-07-10T13:56:42;23.10;99.90
36816;DHT22;22760;51.910;4.474;2022-07-10T13:59:09;22.90;99.90
36816;DHT22;22760;51.910;4.474;2022-07-10T14:01:36;22.80;99.90
36816;DHT22;22760;51.910;4.474;2022-07-10T14:04:03;22.80;99.90
36816;DHT22;22760;51.910;4.474;2022-07-10T14:06:30;22.60;99.90
36816;DHT22;22760;51.910;4.474;2022-07-10T14:08:56;22.60;99.90
36816;DHT22;22760;51.910;4.474;2022-07-10T14:11:25;22.50;99.90
36816;DHT22;22760;51.910;4.474;2022-07-10T14:13:51;22.30;99.90
36816;DHT22;22760;51.910;4.474;2022-07-10T14:16:18;22.40;99.90
36816;DHT22;22760;51.910;4.474;2022-07-10T14:18:45;22.40;99.90
36816;DHT22;22760;51.910;4.474;2022-07-10T14:21:12;22.20;99.90
36816;DHT22;22760;51.910;4.474;2022-07-10T14:23:41;22.10;99.90
36816;DHT22;22760;51.910;4.474;2022-07-10T14:26:10;22.20;99.90
36816;DHT22;22760;51.910;4.474;2022-07-10T14:28:38;22.30;99.90
36816;DHT22;22760;51.910;4.474;2022-07-10T14:31:06;22.50;99.90
36816;DHT22;22760;51.910;4.474;2022-07-10T14:33:34;22.40;99.90
36816;DHT22;22760;51.910;4.474;2022-07-10T14:36:02;22.60;99.90
36816;DHT22;22760;51.910;4.474;2022-07-10T14:38:29;22.60;99.90
36816;DHT22;22760;51.910;4.474;2022-07-10T14:40:57;22.80;99.90
36816;DHT22;22760;51.910;4.474;2022-07-10T14:43:23;23.00;99.90
36816;DHT22;22760;51.910;4.474;2022-07-10T14:45:52;23.00;99.90
36816;DHT22;22760;51.910;4.474;2022-07-10T14:48:20;23.00;99.90
36816;DHT22;22760;51.910;4.474;2022-07-10T14:50:46;23.00;99.90
36816;DHT22;22760;51.910;4.474;2022-07-10T14:53:13;23.10;99.90
36816;DHT22;22760;51.910;4.474;2022-07-10T14:55:40;22.90;99.90
36816;DHT22;22760;51.910;4.474;2022-07-10T14:58:07;22.90;99.90
36816;DHT22;22760;51.910;4.474;2022-07-10T15:00:34;22.80;99.90
36816;DHT22;22760;51.910;4.474;2022-07-10T15:03:02;22.90;99.90
36816;DHT22;22760;51.910;4.474;2022-07-10T15:05:30;23.20;99.90
36816;DHT22;22760;51.910;4.474;2022-07-10T15:07:58;23.10;99.90
36816;DHT22;22760;51.910;4.474;2022-07-10T15:10:25;23.30;99.90
36816;DHT22;22760;51.910;4.474;2022-07-10T15:12:52;23.30;99.90
36816;DHT22;22760;51.910;4.474;2022-07-10T15:15:19;23.80;99.90
36816;DHT22;22760;51.910;4.474;2022-07-10T15:17:46;24.10;99.90
36816;DHT22;22760;51.910;4.474;2022-07-10T15:20:14;24.70;99.90
36816;DHT22;22760;51.910;4.474;2022-07-10T15:22:41;24.80;99.90
36816;DHT22;22760;51.910;4.474;2022-07-10T15:25:08;25.20;99.90
36816;DHT22;22760;51.910;4.474;2022-07-10T15:27:35;25.50;99.80
36816;DHT22;22760;51.910;4.474;2022-07-10T15:30:02;25.20;99.90
36816;DHT22;22760;51.910;4.474;2022-07-10T15:32:30;25.30;99.90
36816;DHT22;22760;51.910;4.474;2022-07-10T15:34:57;24.90;99.90
36816;DHT22;22760;51.910;4.474;2022-07-10T15:37:26;24.40;99.90
36816;DHT22;22760;51.910;4.474;2022-07-10T15:39:53;24.00;99.90
36816;DHT22;22760;51.910;4.474;2022-07-10T15:42:20;23.80;99.90
36816;DHT22;22760;51.910;4.474;2022-07-10T15:44:47;23.60;99.90